Friday, September 21, 2018, 5:34 PM EDT
Back to Local

KACK, Nantucket Memorial Airport

Location: Nantucket, MA, United States Lat: 41.25
Local Time: 5:34 PM EDT (21:34 GMT) Lon: -70.067
Time Zone: US/Eastern Elev: 49 ft

Show me the last for .
Show Coded

Time T Td Feel RH Dir Speed Gust Alt SLP Vis Weather Sky Remarks
2018-09-21 16:53 66 59 - 78 180° 12 - 30.15 30.15 10 CLR None
2018-09-21 15:53 66 58 - 75 170° 13 - 30.17 30.17 10 CLR None
2018-09-21 14:53 66 58 - 75 150° 12 - 30.19 30.19 10 CLR None
2018-09-21 13:53 66 57 - 72 140° 14 - 30.21 30.21 10 CLR 6-hr Min Temp (2pm): 60.1°F
6-hr Max Temp (2pm): 66.9°F
2018-09-21 12:53 66 55 - 67 140° 14 - 30.23 30.23 10 CLR None
2018-09-21 11:53 65 54 - 67 150° 10 - 30.26 30.26 10 CLR None
2018-09-21 10:53 65 53 - 65 120° 9 - 30.29 30.29 10 FEW024 None
2018-09-21 09:53 64 53 - 67 150° 7 - 30.31 30.30 10 FEW024 None
2018-09-21 08:53 63 53 - 70 130° 7 - 30.31 30.31 10 FEW024 None
2018-09-21 07:53 60 54 - 80 100° 5 - 30.31 30.31 10 FEW024 6-hr Min Temp (8am): 53.1°F
6-hr Max Temp (8am): 60.1°F
2018-09-21 06:53 57 53 - 86 60° 5 - 30.30 30.30 10 SCT024 None
2018-09-21 05:53 53 50 - 89 50° 3 - 30.29 30.29 10 FEW025 None
2018-09-21 04:53 56 51 - 83 60° 3 - 30.28 30.27 10 CLR None
2018-09-21 03:53 55 52 - 89 60° 6 - 30.28 30.27 10 CLR None
2018-09-21 02:53 53 51 - 92 60° 5 - 30.29 30.29 10 CLR None
2018-09-21 01:53 57 52 - 83 80° 6 - 30.28 30.27 10 CLR 6-hr Min Temp (2am): 54.0°F
6-hr Max Temp (2am): 60.1°F
2018-09-21 00:53 56 52 - 86 40° 3 - 30.29 30.29 10 CLR 24-hr Min Temp (1am): 54.0°F
24-hr Max Temp (1am): 69.1°F
2018-09-20 23:53 57 53 - 86 60° 6 - 30.29 30.29 10 CLR None
2018-09-20 22:53 55 52 - 89 40° 6 - 30.30 30.29 10 CLR None
2018-09-20 21:53 58 53 - 83 60° 6 - 30.29 30.29 10 CLR None
2018-09-20 20:53 58 54 - 86 60° 6 - 30.28 30.28 10 CLR None
2018-09-20 19:53 60 54 - 80 60° 6 - 30.27 30.27 10 OVC041 6-hr Min Temp (8pm): 60.1°F
6-hr Max Temp (8pm): 69.1°F
2018-09-20 18:53 62 55 - 77 50° 9 - 30.25 30.25 10 OVC042 None
2018-09-20 17:53 63 56 - 77 60° 12 - 30.25 30.24 10 SCT016 OVC044 None

Support USWX by starting your Amazon purchase here.